MSC Fantasia — 3ETR7 — position and weather

sailwx.info

Track history (hours):
 
Tides and Currents Weather Stations Pressure Air Temp Water Temp Dewpoint Dewpoint Depression Visibility Wind Speed Wind Dir Waves Ship Positions

MSC Fantasia

Last reported at 2018-Feb-20 00:02 UTC. Time now 2018-Feb-22 09:02 UTC.
Position N 16°21' W 062°03'.

Length 333 m; draft 8.7 m.

Type: Ship. MMSI: 370648000.

Date/timePositionNaut miles runAvg speedWind from/ knotsBaromVisibWave heightAir tempDewpointWater temp
2018-Feb-20 00:02N 16°21' W 062°03'119.3
2018-Feb-20 00:00N 16°22' W 062°03'919.2
2018-Feb-19 23:31N 16°31' W 062°02'1019.2
2018-Feb-19 23:00N 16°40' W 062°01'1019.3
2018-Feb-19 22:30N 16°50' W 061°60'1019.2
2018-Feb-19 22:00N 16°60' W 061°59'918.2
2018-Feb-19 21:30N 17°08' W 061°57'611.0
2018-Feb-19 21:00N 17°07' W 061°51'0 0.4
2018-Feb-19 20:28N 17°07' W 061°51'0 0.0
2018-Feb-19 19:58N 17°07' W 061°51'0 0.0
2018-Feb-19 19:28N 17°07' W 061°51'0 0.0
2018-Feb-19 19:00N 17°07' W 061°51'0 0.0
2018-Feb-19 18:24N 17°07' W 061°51'0 0.0
2018-Feb-19 18:00N 17°07' W 061°51'0 0.0
2018-Feb-19 17:30N 17°07' W 061°51'0 0.0
2018-Feb-19 17:00N 17°07' W 061°51'0 0.0
2018-Feb-19 16:29N 17°07' W 061°51'0 0.0
2018-Feb-19 15:59N 17°07' W 061°51'0 0.0
2018-Feb-19 15:29N 17°07' W 061°51'0 0.0
2018-Feb-19 14:59N 17°07' W 061°51'0 0.0
2018-Feb-19 14:29N 17°07' W 061°51'0 0.0
2018-Feb-19 13:58N 17°07' W 061°51'0 0.0
2018-Feb-19 13:28N 17°07' W 061°51'0 0.0
2018-Feb-19 12:58N 17°07' W 061°51'0 0.0
2018-Feb-19 12:28N 17°07' W 061°51'0 0.0
2018-Feb-19 12:00N 17°07' W 061°51'0 0.0
2018-Feb-19 11:30N 17°07' W 061°51'0 0.0
2018-Feb-19 11:00N 17°07' W 061°51'0 0.1
2018-Feb-19 10:30N 17°07' W 061°51'3 5.6
2018-Feb-19 10:00N 17°08' W 061°54'4 8.6
2018-Feb-19 09:30N 17°09' W 061°58'510.5
2018-Feb-19 09:00N 17°07' W 062°03'611.9
2018-Feb-19 08:30N 17°01' W 062°04'612.4
2018-Feb-19 08:00N 16°55' W 062°04'612.1
2018-Feb-19 07:30N 16°49' W 062°04'612.3
2018-Feb-19 07:00N 16°43' W 062°04'612.5
2018-Feb-19 06:30N 16°36' W 062°04'612.3
2018-Feb-19 06:00N 16°30' W 062°04'612.1
2018-Feb-19 05:30N 16°24' W 062°04'612.4
2018-Feb-19 05:00N 16°18' W 062°04'713.2
2018-Feb-19 04:30N 16°12' W 062°02'2512.0
2018-Feb-19 02:26N 15°50' W 061°49'23 9.5
2018-Feb-19 00:00N 16°05' W 061°31'610.7
2018-Feb-18 23:29N 16°11' W 061°33'4 6.1
2018-Feb-18 22:53N 16°14' W 061°32'0 0.0
2018-Feb-18 22:23N 16°14' W 061°32'0 0.0
2018-Feb-18 21:55N 16°14' W 061°32'0 0.0
2018-Feb-18 11:27N 16°14' W 061°32'2 4.0
2018-Feb-18 10:59N 16°12' W 061°32'3 7.1
2018-Feb-18 10:30N 16°09' W 061°30'2911.6
2018-Feb-18 08:01N 15°40' W 061°33'6211.8
2018-Feb-18 02:43N 14°40' W 061°16'313.1
2018-Feb-18 02:30N 14°38' W 061°13'912.4
2018-Feb-18 01:46N 14°35' W 061°05'2 6.3
2018-Feb-18 01:30N 14°36' W 061°04'0 0.0
2018-Feb-18 00:59N 14°36' W 061°04'0 0.0
2018-Feb-18 00:28N 14°36' W 061°04'0 0.0
2018-Feb-17 23:55N 14°36' W 061°04'0 0.0
2018-Feb-17 23:25N 14°36' W 061°04'0 0.0
2018-Feb-17 22:58N 14°36' W 061°04'0 0.0
2018-Feb-17 22:28N 14°36' W 061°04'0 0.0
2018-Feb-17 22:00N 14°36' W 061°04'0 0.0
2018-Feb-17 20:39N 14°36' W 061°04'0 0.0
2018-Feb-17 20:12N 14°36' W 061°04'0 0.0
2018-Feb-17 19:57N 14°36' W 061°04'0 0.0
2018-Feb-17 19:14N 14°36' W 061°04'0 0.0
2018-Feb-17 18:56N 14°36' W 061°04'0 0.0
2018-Feb-17 18:29N 14°36' W 061°04'0 0.0
2018-Feb-17 17:53N 14°36' W 061°04'0 0.0
2018-Feb-17 17:22N 14°36' W 061°04'0 0.0
2018-Feb-17 16:58N 14°36' W 061°04'0 0.0
2018-Feb-17 16:25N 14°36' W 061°04'0 0.0
2018-Feb-17 15:58N 14°36' W 061°04'0 0.0
2018-Feb-17 15:25N 14°36' W 061°04'0 0.0
2018-Feb-17 15:00N 14°36' W 061°04'0 0.0
2018-Feb-17 14:30N 14°36' W 061°04'0 0.0
2018-Feb-17 14:00N 14°36' W 061°04'0 0.0
2018-Feb-17 13:24N 14°36' W 061°04'0 0.0
2018-Feb-17 13:00N 14°36' W 061°04'0 0.0
2018-Feb-17 11:32N 14°36' W 061°04'0 0.0
2018-Feb-17 11:29N 14°36' W 061°04'0 0.1
2018-Feb-17 11:00N 14°36' W 061°04'2 3.8
2018-Feb-17 10:30N 14°35' W 061°05'612.0
2018-Feb-17 10:00N 14°38' W 061°11'815.9
2018-Feb-17 09:30N 14°43' W 061°17'4316.1
2018-Feb-17 06:49N 15°20' W 061°40'5816.3
2018-Feb-17 03:15N 16°11' W 062°10'517.0
2018-Feb-17 02:58N 16°15' W 062°13'816.9
2018-Feb-17 02:30N 16°22' W 062°17'816.9
2018-Feb-17 02:01N 16°29' W 062°21'1116.5
2018-Feb-17 01:22N 16°38' W 062°26'616.7
2018-Feb-17 01:00N 16°44' W 062°29'3116.9
2018-Feb-16 23:12N 17°11' W 062°43'4 0.4
2018-Feb-16 13:50N 17°15' W 062°43'614.3
2018-Feb-16 13:26N 17°10' W 062°42'717.1
2018-Feb-16 13:00N 17°02' W 062°41'2018.7
2018-Feb-16 11:58N 16°43' W 062°37'818.6
2018-Feb-16 11:30N 16°35' W 062°36'1018.3
2018-Feb-16 10:58N 16°25' W 062°34'  
2018-Feb-12 11:29N 14°01' W 061°00'23 9.6
2018-Feb-12 09:09N 14°18' W 061°15'210.7
2018-Feb-12 08:59N 14°20' W 061°16'510.8
2018-Feb-12 08:30N 14°25' W 061°19'611.3
2018-Feb-12 08:00N 14°30' W 061°21'611.5
2018-Feb-12 07:30N 14°35' W 061°24'611.6
2018-Feb-12 06:59N 14°41' W 061°26'8912.0
2018-Feb-11 23:35N 16°09' W 061°32'110.9
2018-Feb-11 23:27N 16°11' W 061°33'4 1.4
2018-Feb-11 20:55N 16°14' W 061°32'0 0.0
2018-Feb-11 20:28N 16°14' W 061°32'0 0.0
2018-Feb-11 19:46N 16°14' W 061°32'0 0.0
2018-Feb-11 19:24N 16°14' W 061°32'0 0.0
2018-Feb-11 18:45N 16°14' W 061°32'0 0.0
2018-Feb-11 17:36N 16°14' W 061°32'0 0.0
2018-Feb-11 17:23N 16°14' W 061°32'0 0.0
2018-Feb-11 16:47N 16°14' W 061°32'0 0.0
2018-Feb-11 16:17N 16°14' W 061°32'0 0.0
2018-Feb-11 15:59N 16°14' W 061°32'0 0.0
2018-Feb-11 15:29N 16°14' W 061°32'0 0.0
2018-Feb-11 14:58N 16°14' W 061°32'0 0.0
2018-Feb-11 14:28N 16°14' W 061°32'0 0.0
2018-Feb-11 13:25N 16°14' W 061°32'0 0.0
2018-Feb-11 12:58N 16°14' W 061°32'0 0.0
2018-Feb-11 12:27N 16°14' W 061°32'0 0.0
2018-Feb-11 11:25N 16°14' W 061°32'1 1.3
2018-Feb-11 11:00N 16°14' W 061°32'5 9.3
2018-Feb-11 10:30N 16°09' W 061°31'4616.6
2018-Feb-11 07:44N 15°24' W 061°39'5018.5
2018-Feb-11 05:03N 14°40' W 061°15'220.5
2018-Feb-11 04:58N 14°39' W 061°14'1018.3
2018-Feb-11 04:26N 14°35' W 061°05'2 3.1
2018-Feb-11 03:55N 14°36' W 061°04'0 0.0
2018-Feb-11 03:30N 14°36' W 061°04'0 0.0
2018-Feb-11 03:00N 14°36' W 061°04'0 0.0
2018-Feb-11 02:30N 14°36' W 061°04'0 0.0
2018-Feb-11 02:00N 14°36' W 061°04'0 0.0
2018-Feb-11 01:30N 14°36' W 061°04'0 0.0
2018-Feb-11 00:59N 14°36' W 061°04'0 0.0
2018-Feb-11 00:29N 14°36' W 061°04'0 0.0
2018-Feb-10 23:26N 14°36' W 061°04'0 0.0
2018-Feb-10 22:53N 14°36' W 061°04'0 0.0
2018-Feb-10 22:28N 14°36' W 061°04'0 0.0
2018-Feb-10 19:39N 14°36' W 061°04'0 0.0
2018-Feb-10 19:27N 14°36' W 061°04'0 0.0
2018-Feb-10 19:00N 14°36' W 061°04'0 0.0
2018-Feb-10 15:47N 14°36' W 061°04'0 0.0
2018-Feb-10 14:49N 14°36' W 061°04'0 0.0
2018-Feb-10 14:25N 14°36' W 061°04'0 0.0
2018-Feb-10 13:58N 14°36' W 061°04'0 0.0
2018-Feb-10 11:12N 14°36' W 061°04'0 1.4
2018-Feb-10 11:00N 14°36' W 061°04'2 4.1
2018-Feb-10 10:30N 14°35' W 061°06'610.9
2018-Feb-10 10:00N 14°38' W 061°11'814.8
2018-Feb-10 09:29N 14°43' W 061°17'10716.3
2018-Feb-10 02:56N 16°15' W 062°12'716.3
2018-Feb-10 02:30N 16°21' W 062°16'816.3
2018-Feb-10 01:59N 16°29' W 062°21'1016.7
2018-Feb-10 01:22N 16°38' W 062°26'616.7
2018-Feb-10 01:00N 16°43' W 062°29'  
Track history (hours):
 
Tides and Currents Weather Stations Pressure Air Temp Water Temp Dewpoint Dewpoint Depression Visibility Wind Speed Wind Dir Waves Ship Positions

MSC Fantasia

Last reported at 2018-Feb-20 00:02 UTC. Time now 2018-Feb-22 09:02 UTC.
Position N 16°21' W 062°03'.

Length 333 m; draft 8.7 m.

Type: Ship. MMSI: 370648000.

Date/timePositionNaut miles runAvg speedWind from/ knotsBaromVisibWave heightAir tempDewpointWater temp
2018-Feb-20 00:02N 16°21' W 062°03'119.3
2018-Feb-20 00:00N 16°22' W 062°03'919.2
2018-Feb-19 23:31N 16°31' W 062°02'1019.2
2018-Feb-19 23:00N 16°40' W 062°01'1019.3
2018-Feb-19 22:30N 16°50' W 061°60'1019.2
2018-Feb-19 22:00N 16°60' W 061°59'918.2
2018-Feb-19 21:30N 17°08' W 061°57'611.0
2018-Feb-19 21:00N 17°07' W 061°51'0 0.4
2018-Feb-19 20:28N 17°07' W 061°51'0 0.0
2018-Feb-19 19:58N 17°07' W 061°51'0 0.0
2018-Feb-19 19:28N 17°07' W 061°51'0 0.0
2018-Feb-19 19:00N 17°07' W 061°51'0 0.0
2018-Feb-19 18:24N 17°07' W 061°51'0 0.0
2018-Feb-19 18:00N 17°07' W 061°51'0 0.0
2018-Feb-19 17:30N 17°07' W 061°51'0 0.0
2018-Feb-19 17:00N 17°07' W 061°51'0 0.0
2018-Feb-19 16:29N 17°07' W 061°51'0 0.0
2018-Feb-19 15:59N 17°07' W 061°51'0 0.0
2018-Feb-19 15:29N 17°07' W 061°51'0 0.0
2018-Feb-19 14:59N 17°07' W 061°51'0 0.0
2018-Feb-19 14:29N 17°07' W 061°51'0 0.0
2018-Feb-19 13:58N 17°07' W 061°51'0 0.0
2018-Feb-19 13:28N 17°07' W 061°51'0 0.0
2018-Feb-19 12:58N 17°07' W 061°51'0 0.0
2018-Feb-19 12:28N 17°07' W 061°51'0 0.0
2018-Feb-19 12:00N 17°07' W 061°51'0 0.0
2018-Feb-19 11:30N 17°07' W 061°51'0 0.0
2018-Feb-19 11:00N 17°07' W 061°51'0 0.1
2018-Feb-19 10:30N 17°07' W 061°51'3 5.6
2018-Feb-19 10:00N 17°08' W 061°54'4 8.6
2018-Feb-19 09:30N 17°09' W 061°58'510.5
2018-Feb-19 09:00N 17°07' W 062°03'611.9
2018-Feb-19 08:30N 17°01' W 062°04'612.4
2018-Feb-19 08:00N 16°55' W 062°04'612.1
2018-Feb-19 07:30N 16°49' W 062°04'612.3
2018-Feb-19 07:00N 16°43' W 062°04'612.5
2018-Feb-19 06:30N 16°36' W 062°04'612.3
2018-Feb-19 06:00N 16°30' W 062°04'612.1
2018-Feb-19 05:30N 16°24' W 062°04'612.4
2018-Feb-19 05:00N 16°18' W 062°04'713.2
2018-Feb-19 04:30N 16°12' W 062°02'2512.0
2018-Feb-19 02:26N 15°50' W 061°49'23 9.5
2018-Feb-19 00:00N 16°05' W 061°31'610.7
2018-Feb-18 23:29N 16°11' W 061°33'4 6.1
2018-Feb-18 22:53N 16°14' W 061°32'0 0.0
2018-Feb-18 22:23N 16°14' W 061°32'0 0.0
2018-Feb-18 21:55N 16°14' W 061°32'0 0.0
2018-Feb-18 11:27N 16°14' W 061°32'2 4.0
2018-Feb-18 10:59N 16°12' W 061°32'3 7.1
2018-Feb-18 10:30N 16°09' W 061°30'2911.6
2018-Feb-18 08:01N 15°40' W 061°33'6211.8
2018-Feb-18 02:43N 14°40' W 061°16'313.1
2018-Feb-18 02:30N 14°38' W 061°13'912.4
2018-Feb-18 01:46N 14°35' W 061°05'2 6.3
2018-Feb-18 01:30N 14°36' W 061°04'0 0.0
2018-Feb-18 00:59N 14°36' W 061°04'0 0.0
2018-Feb-18 00:28N 14°36' W 061°04'0 0.0
2018-Feb-17 23:55N 14°36' W 061°04'0 0.0
2018-Feb-17 23:25N 14°36' W 061°04'0 0.0
2018-Feb-17 22:58N 14°36' W 061°04'0 0.0
2018-Feb-17 22:28N 14°36' W 061°04'0 0.0
2018-Feb-17 22:00N 14°36' W 061°04'0 0.0
2018-Feb-17 20:39N 14°36' W 061°04'0 0.0
2018-Feb-17 20:12N 14°36' W 061°04'0 0.0
2018-Feb-17 19:57N 14°36' W 061°04'0 0.0
2018-Feb-17 19:14N 14°36' W 061°04'0 0.0
2018-Feb-17 18:56N 14°36' W 061°04'0 0.0
2018-Feb-17 18:29N 14°36' W 061°04'0 0.0
2018-Feb-17 17:53N 14°36' W 061°04'0 0.0
2018-Feb-17 17:22N 14°36' W 061°04'0 0.0
2018-Feb-17 16:58N 14°36' W 061°04'0 0.0
2018-Feb-17 16:25N 14°36' W 061°04'0 0.0
2018-Feb-17 15:58N 14°36' W 061°04'0 0.0
2018-Feb-17 15:25N 14°36' W 061°04'0 0.0
2018-Feb-17 15:00N 14°36' W 061°04'0 0.0
2018-Feb-17 14:30N 14°36' W 061°04'0 0.0
2018-Feb-17 14:00N 14°36' W 061°04'0 0.0
2018-Feb-17 13:24N 14°36' W 061°04'0 0.0
2018-Feb-17 13:00N 14°36' W 061°04'0 0.0
2018-Feb-17 11:32N 14°36' W 061°04'0 0.0
2018-Feb-17 11:29N 14°36' W 061°04'0 0.1
2018-Feb-17 11:00N 14°36' W 061°04'2 3.8
2018-Feb-17 10:30N 14°35' W 061°05'612.0
2018-Feb-17 10:00N 14°38' W 061°11'815.9
2018-Feb-17 09:30N 14°43' W 061°17'4316.1
2018-Feb-17 06:49N 15°20' W 061°40'5816.3
2018-Feb-17 03:15N 16°11' W 062°10'517.0
2018-Feb-17 02:58N 16°15' W 062°13'816.9
2018-Feb-17 02:30N 16°22' W 062°17'816.9
2018-Feb-17 02:01N 16°29' W 062°21'1116.5
2018-Feb-17 01:22N 16°38' W 062°26'616.7
2018-Feb-17 01:00N 16°44' W 062°29'3116.9
2018-Feb-16 23:12N 17°11' W 062°43'4 0.4
2018-Feb-16 13:50N 17°15' W 062°43'614.3
2018-Feb-16 13:26N 17°10' W 062°42'717.1
2018-Feb-16 13:00N 17°02' W 062°41'2018.7
2018-Feb-16 11:58N 16°43' W 062°37'818.6
2018-Feb-16 11:30N 16°35' W 062°36'1018.3
2018-Feb-16 10:58N 16°25' W 062°34'  
2018-Feb-12 11:29N 14°01' W 061°00'23 9.6
2018-Feb-12 09:09N 14°18' W 061°15'210.7
2018-Feb-12 08:59N 14°20' W 061°16'510.8
2018-Feb-12 08:30N 14°25' W 061°19'611.3
2018-Feb-12 08:00N 14°30' W 061°21'611.5
2018-Feb-12 07:30N 14°35' W 061°24'611.6
2018-Feb-12 06:59N 14°41' W 061°26'8912.0
2018-Feb-11 23:35N 16°09' W 061°32'110.9
2018-Feb-11 23:27N 16°11' W 061°33'4 1.4
2018-Feb-11 20:55N 16°14' W 061°32'0 0.0
2018-Feb-11 20:28N 16°14' W 061°32'0 0.0
2018-Feb-11 19:46N 16°14' W 061°32'0 0.0
2018-Feb-11 19:24N 16°14' W 061°32'0 0.0
2018-Feb-11 18:45N 16°14' W 061°32'0 0.0
2018-Feb-11 17:36N 16°14' W 061°32'0 0.0
2018-Feb-11 17:23N 16°14' W 061°32'0 0.0
2018-Feb-11 16:47N 16°14' W 061°32'0 0.0
2018-Feb-11 16:17N 16°14' W 061°32'0 0.0
2018-Feb-11 15:59N 16°14' W 061°32'0 0.0
2018-Feb-11 15:29N 16°14' W 061°32'0 0.0
2018-Feb-11 14:58N 16°14' W 061°32'0 0.0
2018-Feb-11 14:28N 16°14' W 061°32'0 0.0
2018-Feb-11 13:25N 16°14' W 061°32'0 0.0
2018-Feb-11 12:58N 16°14' W 061°32'0 0.0
2018-Feb-11 12:27N 16°14' W 061°32'0 0.0
2018-Feb-11 11:25N 16°14' W 061°32'1 1.3
2018-Feb-11 11:00N 16°14' W 061°32'5 9.3
2018-Feb-11 10:30N 16°09' W 061°31'4616.6
2018-Feb-11 07:44N 15°24' W 061°39'5018.5
2018-Feb-11 05:03N 14°40' W 061°15'220.5
2018-Feb-11 04:58N 14°39' W 061°14'1018.3
2018-Feb-11 04:26N 14°35' W 061°05'2 3.1
2018-Feb-11 03:55N 14°36' W 061°04'0 0.0
2018-Feb-11 03:30N 14°36' W 061°04'0 0.0
2018-Feb-11 03:00N 14°36' W 061°04'0 0.0
2018-Feb-11 02:30N 14°36' W 061°04'0 0.0
2018-Feb-11 02:00N 14°36' W 061°04'0 0.0
2018-Feb-11 01:30N 14°36' W 061°04'0 0.0
2018-Feb-11 00:59N 14°36' W 061°04'0 0.0
2018-Feb-11 00:29N 14°36' W 061°04'0 0.0
2018-Feb-10 23:26N 14°36' W 061°04'0 0.0
2018-Feb-10 22:53N 14°36' W 061°04'0 0.0
2018-Feb-10 22:28N 14°36' W 061°04'0 0.0
2018-Feb-10 19:39N 14°36' W 061°04'0 0.0
2018-Feb-10 19:27N 14°36' W 061°04'0 0.0
2018-Feb-10 19:00N 14°36' W 061°04'0 0.0
2018-Feb-10 15:47N 14°36' W 061°04'0 0.0
2018-Feb-10 14:49N 14°36' W 061°04'0 0.0
2018-Feb-10 14:25N 14°36' W 061°04'0 0.0
2018-Feb-10 13:58N 14°36' W 061°04'0 0.0
2018-Feb-10 11:12N 14°36' W 061°04'0 1.4
2018-Feb-10 11:00N 14°36' W 061°04'2 4.1
2018-Feb-10 10:30N 14°35' W 061°06'610.9
2018-Feb-10 10:00N 14°38' W 061°11'814.8
2018-Feb-10 09:29N 14°43' W 061°17'10716.3
2018-Feb-10 02:56N 16°15' W 062°12'716.3
2018-Feb-10 02:30N 16°21' W 062°16'816.3
2018-Feb-10 01:59N 16°29' W 062°21'1016.7
2018-Feb-10 01:22N 16°38' W 062°26'616.7
2018-Feb-10 01:00N 16°43' W 062°29'  

Dump ship's entire track history